Terminal Aerodrome Forecast
Issued by NWS Albany, NY

Home | Current Version | Previous Version | Text Only | Print | Product List | Glossary On
Versions: 1 2 3 4 5 6 7 8 9 10 11 12 13 14 15 16 17 18 19 20 21 22 23 24 25 26 27 28 29 30 31 32 33
599
FTUS41 KALY 270120 AAA
TAFGFL
TAF AMD
KGFL 270120Z 2701/2724 21005KT P6SM SCT050
     FM270700 19006KT P6SM SCT120 WS020/25030KT
     FM271500 22012G19KT P6SM SCT060
     FM272300 24004KT P6SM FEW060=

USA.gov is the U.S. government's official web portal to all federal, state and local government web resources and services.